Time;durP1;ratioP1;P1;durP2;ratioP2;P2;SDS_P1;SDS_P2;PMS_P1;PMS_P2;Temp;Humidity;BMP_temperature;BMP_pressure;BME280_temperature;BME280_humidity;BME280_pressure;Samples;Min_cycle;Max_cycle;Signal;HPM_P1;HPM_P2
2023/12/03 00:00:03;;;;;;;17.23;8.50;;;;;;;-4.91;100.00;100967.91;5040065;28;20434;-68
2023/12/03 00:02:29;;;;;;;17.57;8.00;;;;;;;-5.01;100.00;100977.34;5041962;28;20463;-68
2023/12/03 00:04:58;;;;;;;14.87;7.80;;;;;;;-5.17;100.00;100968.31;5030692;28;20480;-67
2023/12/03 00:07:24;;;;;;;6.80;3.13;;;;;;;-5.13;100.00;100972.97;5038802;28;20457;-68
2023/12/03 00:09:52;;;;;;;6.80;2.87;;;;;;;-5.23;100.00;100972.03;5045511;28;20491;-68
2023/12/03 00:12:18;;;;;;;14.90;7.50;;;;;;;-5.11;100.00;100981.75;5032638;28;20467;-68
2023/12/03 00:14:44;;;;;;;15.57;8.13;;;;;;;-5.16;100.00;100977.88;5029940;28;20475;-68
2023/12/03 00:17:11;;;;;;;5.40;2.53;;;;;;;-5.18;100.00;100975.94;5047203;28;20477;-69
2023/12/03 00:19:39;;;;;;;12.80;6.60;;;;;;;-5.09;100.00;100975.03;5047998;28;20438;-68
2023/12/03 00:22:07;;;;;;;20.40;9.63;;;;;;;-4.98;100.00;100990.50;5038895;28;20461;-68
2023/12/03 00:24:33;;;;;;;18.97;9.00;;;;;;;-4.87;100.00;100985.47;5036638;28;20476;-68
2023/12/03 00:27:00;;;;;;;6.50;3.33;;;;;;;-4.92;100.00;100984.19;5047048;28;20952;-67
2023/12/03 00:29:26;;;;;;;7.93;3.07;;;;;;;-4.96;100.00;100983.78;5046581;28;20448;-68
2023/12/03 00:34:20;;;;;;;8.47;3.13;;;;;;;-4.97;100.00;100985.47;5035589;28;20472;-67
2023/12/03 00:36:46;;;;;;;6.50;2.63;;;;;;;-5.00;100.00;100990.38;5036294;28;21089;-65
2023/12/03 00:39:13;;;;;;;18.50;9.17;;;;;;;-4.89;100.00;101002.50;5044866;28;20483;-67
2023/12/03 00:41:39;;;;;;;8.20;3.63;;;;;;;-4.89;100.00;100999.94;5039879;28;20452;-67
2023/12/03 00:44:06;;;;;;;8.80;4.43;;;;;;;-4.78;100.00;100998.25;5046654;28;20536;-67
2023/12/03 00:46:32;;;;;;;7.97;3.53;;;;;;;-4.63;100.00;101003.78;5040320;28;20492;-67
2023/12/03 00:48:59;;;;;;;6.20;2.47;;;;;;;-4.37;100.00;101009.44;5047220;28;20499;-67
2023/12/03 00:51:26;;;;;;;17.97;8.87;;;;;;;-4.24;100.00;101008.75;5047899;28;20444;-66
2023/12/03 00:53:52;;;;;;;17.57;8.63;;;;;;;-4.22;100.00;101014.94;5047877;28;20486;-67
2023/12/03 00:56:19;;;;;;;8.23;3.17;;;;;;;-4.06;100.00;100998.97;5030207;28;20437;-66
2023/12/03 00:58:45;;;;;;;14.30;7.63;;;;;;;-4.03;100.00;101002.72;5042095;28;20466;-67
2023/12/03 01:01:11;;;;;;;20.53;9.70;;;;;;;-3.97;100.00;101004.91;5046757;28;20469;-67
2023/12/03 01:03:38;;;;;;;19.07;8.23;;;;;;;-3.97;100.00;101007.50;5047821;28;20472;-67
2023/12/03 01:06:04;;;;;;;7.30;3.23;;;;;;;-3.92;100.00;101008.78;5048037;28;20448;-67
2023/12/03 01:08:31;;;;;;;10.23;3.93;;;;;;;-3.88;100.00;101018.59;5039903;28;20455;-68
2023/12/03 01:10:57;;;;;;;13.80;7.60;;;;;;;-3.76;100.00;101008.31;5045687;28;20461;-65
2023/12/03 01:13:24;;;;;;;21.30;10.33;;;;;;;-3.76;100.00;101019.56;5044934;28;20476;-67
2023/12/03 01:15:51;;;;;;;8.00;3.03;;;;;;;-3.69;100.00;101016.66;5046706;28;20524;-67
2023/12/03 01:18:17;;;;;;;5.93;3.27;;;;;;;-3.61;100.00;101025.94;5041489;28;20513;-68
2023/12/03 01:20:44;;;;;;;8.40;4.03;;;;;;;-3.53;100.00;101026.56;5028882;28;20975;-67
2023/12/03 01:23:10;;;;;;;7.00;2.57;;;;;;;-3.46;100.00;101034.03;5028945;28;20504;-67
2023/12/03 01:25:37;;;;;;;12.57;3.67;;;;;;;-3.37;100.00;101036.44;5047308;28;20452;-66
2023/12/03 01:28:03;;;;;;;6.53;3.90;;;;;;;-3.34;100.00;101039.25;5026565;28;20445;-66
2023/12/03 01:30:30;;;;;;;9.83;4.90;;;;;;;-3.32;100.00;101042.88;5042939;28;21182;-66
2023/12/03 01:32:56;;;;;;;10.63;3.83;;;;;;;-3.35;100.00;101033.19;5045741;28;20525;-68
2023/12/03 01:35:23;;;;;;;9.03;3.60;;;;;;;-3.29;100.00;101038.84;5046329;28;20457;-67
2023/12/03 01:37:49;;;;;;;9.00;3.77;;;;;;;-3.24;100.00;101049.56;5042200;28;20489;-67
2023/12/03 01:40:16;;;;;;;11.90;4.57;;;;;;;-3.32;100.00;101029.94;5042899;28;20858;-67
2023/12/03 01:42:42;;;;;;;13.97;4.30;;;;;;;-3.28;100.00;101034.56;5046265;28;20500;-66
2023/12/03 01:45:09;;;;;;;6.50;3.50;;;;;;;-3.24;100.00;101034.91;5046642;28;20484;-67
2023/12/03 01:47:35;;;;;;;19.70;9.80;;;;;;;-3.23;100.00;101041.00;5027727;28;20449;-66
2023/12/03 01:50:07;;;;;;;18.73;9.17;;;;;;;-3.17;100.00;101049.28;5023885;28;20826;-67
2023/12/03 01:52:35;;;;;;;19.87;9.17;;;;;;;-3.19;100.00;101041.38;5045394;28;21012;-67
2023/12/03 01:55:02;;;;;;;7.27;4.13;;;;;;;-3.21;100.00;101042.03;5031792;28;20453;-66
2023/12/03 01:57:30;;;;;;;19.87;10.13;;;;;;;-3.19;100.00;101038.78;5030729;28;20473;-67
2023/12/03 01:59:56;;;;;;;20.27;9.27;;;;;;;-3.21;100.00;101040.34;5045726;28;20460;-68
2023/12/03 02:02:23;;;;;;;19.07;9.80;;;;;;;-3.19;100.00;101041.38;5046665;28;20476;-68
2023/12/03 02:04:49;;;;;;;23.90;10.10;;;;;;;-3.10;100.00;101051.56;5048625;28;20206;-67
2023/12/03 02:07:16;;;;;;;7.23;3.57;;;;;;;-3.15;100.00;101055.47;5050428;28;20459;-67
2023/12/03 02:09:42;;;;;;;7.93;4.47;;;;;;;-3.16;100.00;101045.91;5032675;28;20288;-68
2023/12/03 02:12:09;;;;;;;21.77;9.83;;;;;;;-3.12;100.00;101057.41;5043121;28;20526;-67
2023/12/03 02:14:35;;;;;;;20.43;9.47;;;;;;;-3.16;100.00;101061.44;5048691;28;20202;-67
2023/12/03 02:17:02;;;;;;;5.60;3.30;;;;;;;-3.20;100.00;101060.31;5047627;28;20309;-67
2023/12/03 02:19:29;;;;;;;6.10;3.20;;;;;;;-3.21;100.00;101054.97;5048518;28;20230;-69
2023/12/03 02:21:55;;;;;;;13.37;3.53;;;;;;;-3.11;100.00;101061.78;5043891;28;20214;-66
2023/12/03 02:24:21;;;;;;;9.30;3.87;;;;;;;-3.21;100.00;101066.22;5027341;28;20261;-67
2023/12/03 02:26:48;;;;;;;6.33;3.67;;;;;;;-3.26;100.00;101057.19;5049364;28;20204;-68
2023/12/03 02:29:14;;;;;;;7.23;2.80;;;;;;;-3.24;100.00;101060.81;5048102;28;20206;-68
2023/12/03 02:31:41;;;;;;;7.83;3.07;;;;;;;-3.22;100.00;101060.94;5040595;28;20641;-66
2023/12/03 02:34:10;;;;;;;10.77;3.37;;;;;;;-3.19;100.00;101056.94;5044375;28;20226;-67
2023/12/03 02:36:37;;;;;;;9.10;3.53;;;;;;;-3.14;100.00;101056.38;5032097;28;20686;-67
2023/12/03 02:39:05;;;;;;;14.27;4.93;;;;;;;-3.19;100.00;101051.75;5047201;28;20702;-67
2023/12/03 02:41:32;;;;;;;19.87;9.73;;;;;;;-3.28;100.00;101051.00;5051460;28;20199;-67
2023/12/03 02:43:59;;;;;;;8.37;3.37;;;;;;;-3.29;100.00;101066.41;5050176;28;20736;-66
2023/12/03 02:46:25;;;;;;;5.73;3.40;;;;;;;-3.41;100.00;101073.22;5047633;28;20203;-67
2023/12/03 02:48:52;;;;;;;11.73;4.27;;;;;;;-3.53;100.00;101070.56;5045390;28;20452;-68
2023/12/03 02:51:18;;;;;;;6.90;3.67;;;;;;;-3.69;100.00;101065.84;5049880;28;20882;-67
2023/12/03 02:53:45;;;;;;;9.27;4.07;;;;;;;-3.73;100.00;101068.06;5050176;28;20228;-67
2023/12/03 02:56:12;;;;;;;16.40;4.87;;;;;;;-3.75;100.00;101077.38;5047948;28;20451;-66
2023/12/03 02:58:39;;;;;;;10.50;4.40;;;;;;;-3.84;100.00;101070.69;5044735;28;20565;-68
2023/12/03 03:01:06;;;;;;;8.00;3.90;;;;;;;-3.85;100.00;101076.66;5049639;28;20444;-67
2023/12/03 03:03:33;;;;;;;9.03;3.53;;;;;;;-3.93;100.00;101077.72;5049166;28;20449;-67
2023/12/03 03:05:59;;;;;;;10.37;3.03;;;;;;;-3.95;100.00;101088.72;5045995;28;20812;-67
2023/12/03 03:08:26;;;;;;;5.97;2.90;;;;;;;-3.89;100.00;101082.34;5045357;28;20876;-65
2023/12/03 03:10:52;;;;;;;7.47;3.10;;;;;;;-3.84;100.00;101091.41;5032387;28;20441;-67
2023/12/03 03:13:19;;;;;;;12.20;4.00;;;;;;;-3.85;100.00;101089.59;5046722;28;20492;-68
2023/12/03 03:15:45;;;;;;;6.83;3.90;;;;;;;-3.80;100.00;101097.72;5049877;28;20437;-68
2023/12/03 03:18:12;;;;;;;24.43;11.27;;;;;;;-3.82;100.00;101091.50;5049097;28;21034;-68
2023/12/03 03:20:38;;;;;;;8.10;4.33;;;;;;;-3.79;100.00;101090.06;5046055;28;20441;-67
2023/12/03 03:23:04;;;;;;;8.20;3.77;;;;;;;-3.85;100.00;101089.59;5045933;28;20796;-68
2023/12/03 03:25:31;;;;;;;10.37;4.00;;;;;;;-3.87;100.00;101087.66;5050194;28;20222;-68
2023/12/03 03:27:57;;;;;;;23.17;11.20;;;;;;;-3.85;100.00;101081.81;5049138;28;20512;-67
2023/12/03 03:30:24;;;;;;;27.13;11.40;;;;;;;-3.85;100.00;101087.00;5044068;28;20451;-68
2023/12/03 03:32:50;;;;;;;10.90;3.93;;;;;;;-3.79;100.00;101097.84;5029500;28;21047;-68
2023/12/03 03:35:16;;;;;;;11.23;4.73;;;;;;;-3.80;100.00;101089.94;5049151;28;20858;-68
2023/12/03 03:37:43;;;;;;;9.30;3.70;;;;;;;-3.72;100.00;101085.41;5025742;28;20488;-68
2023/12/03 03:40:10;;;;;;;12.57;4.70;;;;;;;-3.70;100.00;101092.50;5046010;28;20471;-68
2023/12/03 03:42:36;;;;;;;8.37;3.20;;;;;;;-3.66;100.00;101093.66;5021225;28;20791;-67
2023/12/03 03:45:03;;;;;;;8.37;3.90;;;;;;;-3.63;100.00;101094.78;5028183;28;20465;-68
2023/12/03 03:47:30;;;;;;;10.77;4.53;;;;;;;-3.65;100.00;101088.59;5047870;28;20459;-68
2023/12/03 03:49:57;;;;;;;10.53;5.77;;;;;;;-3.67;100.00;101091.84;5046440;28;20518;-66
2023/12/03 03:52:23;;;;;;;24.37;11.57;;;;;;;-3.66;100.00;101096.22;5048209;28;20495;-68
2023/12/03 03:54:50;;;;;;;26.33;12.30;;;;;;;-3.64;100.00;101105.03;5047777;28;20825;-68
2023/12/03 03:57:16;;;;;;;24.43;12.20;;;;;;;-3.68;100.00;101098.69;5028620;28;20513;-67
2023/12/03 03:59:44;;;;;;;11.87;5.03;;;;;;;-3.82;100.00;101087.25;5046004;28;20492;-68
2023/12/03 04:02:11;;;;;;;18.00;4.73;;;;;;;-3.74;100.00;101113.72;5046749;28;20492;-68
2023/12/03 04:04:38;;;;;;;15.37;5.10;;;;;;;-3.71;100.00;101113.97;5049311;28;20445;-69
2023/12/03 04:07:04;;;;;;;9.13;4.37;;;;;;;-3.88;100.00;101116.91;5047834;28;21197;-68
2023/12/03 04:09:31;;;;;;;26.07;11.23;;;;;;;-4.01;100.00;101107.19;5046299;28;20817;-68
2023/12/03 04:11:58;;;;;;;24.97;11.77;;;;;;;-4.01;100.00;101117.53;5047506;28;20453;-65
2023/12/03 04:14:25;;;;;;;7.07;4.47;;;;;;;-4.08;100.00;101116.91;5045320;28;20437;-68
2023/12/03 04:16:51;;;;;;;13.13;5.90;;;;;;;-4.08;100.00;101132.44;5047114;28;20456;-68
2023/12/03 04:19:17;;;;;;;28.83;12.33;;;;;;;-4.12;100.00;101139.03;5045053;28;20477;-69
2023/12/03 04:21:44;;;;;;;11.80;3.50;;;;;;;-4.15;100.00;101137.09;5046418;28;20546;-68
2023/12/03 04:24:10;;;;;;;6.93;3.77;;;;;;;-4.29;100.00;101137.66;5047801;28;20500;-68
2023/12/03 04:26:37;;;;;;;8.23;4.63;;;;;;;-4.32;100.00;101128.72;5043152;28;20456;-68
2023/12/03 04:29:04;;;;;;;10.63;4.00;;;;;;;-4.46;100.00;101136.22;5046216;28;20536;-68
2023/12/03 04:31:30;;;;;;;10.70;3.33;;;;;;;-4.51;100.00;101144.34;5047354;28;20809;-68
2023/12/03 04:33:56;;;;;;;29.27;12.30;;;;;;;-4.52;100.00;101148.63;5046672;28;20566;-68
2023/12/03 04:36:25;;;;;;;26.90;12.73;;;;;;;-4.58;100.00;101149.78;5043522;28;20536;-65
2023/12/03 04:38:52;;;;;;;13.13;5.07;;;;;;;-4.73;100.00;101162.31;5046685;28;20567;-68
2023/12/03 04:41:18;;;;;;;26.63;12.10;;;;;;;-4.74;100.00;101160.50;5047262;28;20468;-67
2023/12/03 04:43:45;;;;;;;10.00;3.90;;;;;;;-4.78;100.00;101161.91;5041230;28;20482;-68
2023/12/03 04:46:12;;;;;;;11.00;4.80;;;;;;;-4.68;100.00;101160.13;5028173;28;20540;-68
2023/12/03 04:48:40;;;;;;;8.97;5.33;;;;;;;-4.63;100.00;101164.00;5046808;28;20449;-68
2023/12/03 04:51:07;;;;;;;9.17;5.00;;;;;;;-4.56;100.00;101155.97;5046716;28;20841;-68
2023/12/03 04:53:34;;;;;;;11.83;4.33;;;;;;;-4.51;100.00;101159.84;5048373;28;20459;-69
2023/12/03 04:56:00;;;;;;;6.90;3.87;;;;;;;-4.44;100.00;101163.09;5046135;28;20457;-67
2023/12/03 04:58:26;;;;;;;12.03;5.27;;;;;;;-4.42;100.00;101168.38;5046234;28;20868;-68
2023/12/03 05:00:53;;;;;;;28.10;12.27;;;;;;;-4.39;100.00;101166.09;5042817;28;20808;-67
2023/12/03 05:03:20;;;;;;;29.90;12.60;;;;;;;-4.50;100.00;101148.75;5046803;28;20483;-67
2023/12/03 05:05:47;;;;;;;8.03;3.77;;;;;;;-4.33;100.00;101169.19;5047819;28;21003;-67
2023/12/03 05:08:13;;;;;;;18.63;6.00;;;;;;;-4.37;100.00;101167.13;5046080;28;20448;-67
2023/12/03 05:10:39;;;;;;;10.33;4.43;;;;;;;-4.33;100.00;101164.03;5046946;28;20453;-68
2023/12/03 05:13:06;;;;;;;10.57;4.60;;;;;;;-4.32;100.00;101162.34;5040093;28;20468;-68
2023/12/03 05:15:32;;;;;;;14.73;4.70;;;;;;;-4.26;100.00;101175.78;5046621;28;20453;-68
2023/12/03 05:17:59;;;;;;;9.47;4.80;;;;;;;-4.22;100.00;101176.16;5043772;28;20519;-69
2023/12/03 05:20:25;;;;;;;15.57;5.27;;;;;;;-4.15;100.00;101181.06;5038671;28;20473;-67
2023/12/03 05:22:53;;;;;;;28.93;11.43;;;;;;;-4.17;100.00;101177.44;5044085;28;20556;-68
2023/12/03 05:25:20;;;;;;;27.10;11.83;;;;;;;-4.19;100.00;101173.84;5046403;28;20456;-68
2023/12/03 05:27:46;;;;;;;33.60;13.93;;;;;;;-4.22;100.00;101175.25;5044427;28;20461;-68
2023/12/03 05:30:14;;;;;;;26.37;11.87;;;;;;;-4.21;100.00;101175.38;5050090;28;20445;-68
2023/12/03 05:32:41;;;;;;;30.93;12.57;;;;;;;-4.17;100.00;101184.31;5032252;28;20527;-67
2023/12/03 05:35:08;;;;;;;22.43;10.97;;;;;;;-4.11;100.00;101190.00;5049567;28;20552;-68
2023/12/03 05:37:34;;;;;;;13.40;5.80;;;;;;;-4.12;100.00;101189.09;5028058;28;20531;-68
2023/12/03 05:40:01;;;;;;;12.80;5.57;;;;;;;-4.06;100.00;101190.38;5044781;28;20513;-67
2023/12/03 05:42:28;;;;;;;10.00;4.70;;;;;;;-3.96;100.00;101196.47;5031454;28;20984;-68
2023/12/03 05:44:54;;;;;;;20.40;11.10;;;;;;;-3.95;100.00;101182.75;5050385;28;20991;-67
2023/12/03 05:47:21;;;;;;;16.63;6.00;;;;;;;-3.90;100.00;101185.72;5047415;28;20518;-68
2023/12/03 05:49:47;;;;;;;11.33;5.27;;;;;;;-3.95;100.00;101185.34;5050918;28;20532;-67
2023/12/03 05:52:14;;;;;;;9.80;4.53;;;;;;;-4.05;100.00;101176.66;5048383;28;20476;-68
2023/12/03 05:54:44;;;;;;;10.60;5.00;;;;;;;-4.11;100.00;101183.13;5050141;28;20843;-69
2023/12/03 05:57:10;;;;;;;10.97;4.03;;;;;;;-4.27;100.00;101172.28;5048778;28;20511;-68
2023/12/03 05:59:37;;;;;;;12.37;5.27;;;;;;;-4.39;100.00;101181.59;5050947;28;20469;-68
2023/12/03 06:02:04;;;;;;;10.30;4.97;;;;;;;-4.52;100.00;101178.72;5047581;28;20462;-68
2023/12/03 06:04:31;;;;;;;12.93;4.53;;;;;;;-4.60;100.00;101179.75;5050163;28;21972;-68
2023/12/03 06:06:57;;;;;;;10.70;4.40;;;;;;;-4.74;100.00;101189.81;5050763;28;20451;-68
2023/12/03 06:09:24;;;;;;;10.77;4.93;;;;;;;-4.80;100.00;101197.06;5050823;28;20436;-68
2023/12/03 06:11:50;;;;;;;9.47;4.23;;;;;;;-4.89;100.00;101195.31;5048992;28;20541;-68
2023/12/03 06:14:17;;;;;;;13.13;5.53;;;;;;;-5.11;100.00;101187.38;5049737;28;20471;-68
2023/12/03 06:16:43;;;;;;;11.97;4.37;;;;;;;-5.00;100.00;101193.50;5051006;28;20447;-68
2023/12/03 06:19:10;;;;;;;12.43;4.43;;;;;;;-5.06;100.00;101202.50;5049487;28;20485;-67
2023/12/03 06:21:36;;;;;;;10.37;4.03;;;;;;;-5.20;100.00;101202.09;5031493;28;20478;-69
2023/12/03 06:24:03;;;;;;;12.73;5.37;;;;;;;-5.16;100.00;101205.06;5046810;28;21026;-66
2023/12/03 06:26:30;;;;;;;12.17;5.10;;;;;;;-5.25;100.00;101198.16;5051891;28;20438;-68
2023/12/03 06:28:56;;;;;;;11.47;4.57;;;;;;;-5.31;100.00;101195.03;5049977;28;20451;-67
2023/12/03 06:31:22;;;;;;;24.73;10.97;;;;;;;-5.40;100.00;101200.28;5047264;28;20975;-68
2023/12/03 06:33:49;;;;;;;27.60;11.83;;;;;;;-5.43;100.00;101202.59;5069925;23;20575;-70
2023/12/03 06:36:15;;;;;;;26.43;11.67;;;;;;;-5.50;100.00;101208.00;5067353;28;20520;-69
2023/12/03 06:38:42;;;;;;;6.13;4.13;;;;;;;-5.61;100.00;101195.78;5044769;28;20855;-68
2023/12/03 06:41:08;;;;;;;10.73;5.20;;;;;;;-5.63;100.00;101198.22;5047693;28;20540;-68
2023/12/03 06:43:35;;;;;;;9.73;4.17;;;;;;;-5.67;100.00;101203.88;5061328;28;20483;-68
2023/12/03 06:46:01;;;;;;;10.30;4.87;;;;;;;-5.71;100.00;101197.53;5058749;28;20453;-70
2023/12/03 06:48:28;;;;;;;8.43;3.80;;;;;;;-5.69;100.00;101211.47;5060132;28;20462;-70
2023/12/03 06:50:55;;;;;;;26.43;11.63;;;;;;;-5.76;100.00;101206.53;5064312;28;20492;-68
2023/12/03 06:53:21;;;;;;;28.97;12.33;;;;;;;-5.76;100.00;101219.44;5066796;28;20481;-69
2023/12/03 06:55:47;;;;;;;24.33;11.43;;;;;;;-5.78;100.00;101226.13;5062841;28;20504;-69
2023/12/03 06:58:14;;;;;;;18.70;4.67;;;;;;;-5.79;100.00;101229.47;5065053;28;21018;-68
2023/12/03 07:00:40;;;;;;;12.17;5.60;;;;;;;-5.86;100.00;101229.69;5068065;28;20474;-69
2023/12/03 07:03:07;;;;;;;27.97;11.70;;;;;;;-5.69;100.00;101231.22;5064776;28;20472;-69
2023/12/03 07:05:33;;;;;;;30.93;12.87;;;;;;;-5.68;100.00;101231.34;5065746;28;20455;-69
2023/12/03 07:08:00;;;;;;;29.80;12.60;;;;;;;-5.58;100.00;101246.00;5059763;28;20476;-68
2023/12/03 07:10:26;;;;;;;29.43;12.27;;;;;;;-5.68;100.00;101244.25;5064376;28;21000;-67
2023/12/03 07:12:52;;;;;;;26.57;12.20;;;;;;;-5.70;100.00;101243.19;5048889;28;20471;-68
2023/12/03 07:15:19;;;;;;;33.10;12.87;;;;;;;-5.64;100.00;101248.00;5064821;28;20453;-68
2023/12/03 07:17:45;;;;;;;29.20;12.80;;;;;;;-5.57;100.00;101249.50;5065674;28;20452;-70
2023/12/03 07:20:12;;;;;;;12.50;4.93;;;;;;;-5.68;100.00;101254.56;5065680;28;20571;-68
2023/12/03 07:22:39;;;;;;;13.43;4.87;;;;;;;-5.74;100.00;101260.84;5066616;28;20872;-68
2023/12/03 07:25:07;;;;;;;12.20;5.07;;;;;;;-5.79;100.00;101259.53;5058422;28;20455;-68
2023/12/03 07:27:33;;;;;;;16.43;5.00;;;;;;;-5.81;100.00;101263.63;5066971;28;20858;-68
2023/12/03 07:30:00;;;;;;;26.53;13.03;;;;;;;-5.80;100.00;101257.72;5062053;28;20472;-68
2023/12/03 07:32:26;;;;;;;29.33;12.90;;;;;;;-5.80;100.00;101261.19;5046141;28;20878;-68
2023/12/03 07:34:53;;;;;;;27.07;12.57;;;;;;;-5.82;100.00;101267.88;5060135;28;20593;-69
2023/12/03 07:37:20;;;;;;;29.87;11.87;;;;;;;-5.87;100.00;101263.97;5062313;28;20454;-71
2023/12/03 07:39:46;;;;;;;11.03;4.97;;;;;;;-5.88;100.00;101258.69;5065497;28;20581;-68
2023/12/03 07:42:13;;;;;;;10.13;4.60;;;;;;;-5.87;100.00;101269.13;5060609;28;20453;-68
2023/12/03 07:44:39;;;;;;;8.13;4.27;;;;;;;-5.86;100.00;101268.38;5064061;28;20505;-69
2023/12/03 07:47:06;;;;;;;11.63;4.70;;;;;;;-5.76;100.00;101283.91;5065615;28;20453;-67
2023/12/03 07:49:33;;;;;;;15.17;4.37;;;;;;;-5.71;100.00;101281.75;5060661;28;20531;-70
2023/12/03 07:51:59;;;;;;;14.70;4.93;;;;;;;-5.65;100.00;101289.16;5066132;28;20551;-68
2023/12/03 07:54:26;;;;;;;15.90;5.37;;;;;;;-5.61;100.00;101291.25;5060287;28;20475;-68
2023/12/03 07:56:52;;;;;;;12.80;4.97;;;;;;;-5.54;100.00;101297.13;5062184;28;20472;-68
2023/12/03 07:59:19;;;;;;;32.47;12.73;;;;;;;-5.50;100.00;101304.38;5065506;28;20506;-68
2023/12/03 08:01:45;;;;;;;13.10;4.27;;;;;;;-5.48;100.00;101302.84;5062716;28;20539;-69
2023/12/03 08:04:11;;;;;;;30.40;12.57;;;;;;;-5.40;100.00;101316.44;5067300;28;20508;-69
2023/12/03 08:06:38;;;;;;;29.53;11.93;;;;;;;-5.29;100.00;101325.13;5040167;28;20500;-68
2023/12/03 08:09:05;;;;;;;8.47;3.90;;;;;;;-5.10;100.00;101318.31;5065518;28;20478;-68
2023/12/03 08:11:31;;;;;;;29.30;13.13;;;;;;;-4.93;100.00;101317.22;5063140;28;20454;-68
2023/12/03 08:13:58;;;;;;;11.67;5.20;;;;;;;-4.72;100.00;101321.72;5061329;28;20543;-68
2023/12/03 08:16:24;;;;;;;30.63;12.50;;;;;;;-4.52;100.00;101323.47;5059699;28;20495;-68
2023/12/03 08:18:51;;;;;;;29.83;13.10;;;;;;;-4.30;100.00;101308.16;5066803;28;20472;-68
2023/12/03 08:21:17;;;;;;;29.33;12.73;;;;;;;-4.21;100.00;101315.03;5062780;28;20521;-68
2023/12/03 08:23:44;;;;;;;9.30;4.93;;;;;;;-4.05;100.00;101312.06;5050928;28;20499;-68
2023/12/03 08:26:10;;;;;;;13.43;4.90;;;;;;;-3.98;100.00;101305.75;5059184;28;20429;-68
2023/12/03 08:28:37;;;;;;;11.00;4.70;;;;;;;-3.95;100.00;101290.50;5053649;28;20515;-68
2023/12/03 08:31:04;;;;;;;8.97;4.73;;;;;;;-3.92;100.00;101298.50;5069117;28;20455;-70
2023/12/03 08:33:30;;;;;;;9.97;5.77;;;;;;;-3.89;100.00;101296.19;5067753;28;20474;-68
2023/12/03 08:35:57;;;;;;;9.10;3.50;;;;;;;-3.87;100.00;101294.63;5063365;28;20520;-69
2023/12/03 08:38:23;;;;;;;10.43;4.37;;;;;;;-3.71;100.00;101297.72;5061647;28;20693;-69
2023/12/03 08:40:51;;;;;;;10.93;6.07;;;;;;;-3.68;100.00;101300.56;5062799;28;20737;-69
2023/12/03 08:43:17;;;;;;;11.47;5.63;;;;;;;-3.66;100.00;101299.00;5065387;28;20381;-70
2023/12/03 08:45:44;;;;;;;19.53;6.10;;;;;;;-3.61;100.00;101286.44;5062998;28;20702;-68
2023/12/03 08:48:10;;;;;;;11.03;4.33;;;;;;;-3.65;100.00;101292.16;5070346;28;20572;-69
2023/12/03 08:50:37;;;;;;;12.97;5.63;;;;;;;-3.58;100.00;101294.50;5064687;28;20230;-68
2023/12/03 08:53:03;;;;;;;15.83;4.73;;;;;;;-3.59;100.00;101293.59;5073449;28;20225;-69
2023/12/03 08:55:31;;;;;;;7.53;4.40;;;;;;;-3.61;100.00;101289.94;5070756;28;20269;-70
2023/12/03 08:57:58;;;;;;;10.13;4.60;;;;;;;-3.47;100.00;101304.06;5071575;28;20214;-69
2023/12/03 09:00:24;;;;;;;12.07;4.77;;;;;;;-3.38;100.00;101306.50;5071787;28;20445;-69
2023/12/03 09:02:51;;;;;;;35.70;13.67;;;;;;;-3.38;100.00;101302.22;5071100;28;20217;-68
2023/12/03 09:05:17;;;;;;;27.17;12.17;;;;;;;-3.28;100.00;101309.06;5071635;28;20202;-68
2023/12/03 09:07:44;;;;;;;11.33;5.33;;;;;;;-3.14;100.00;101305.94;5067959;28;20247;-68
2023/12/03 09:10:13;;;;;;;28.33;12.90;;;;;;;-3.12;100.00;101311.25;5070936;28;20276;-69
2023/12/03 09:12:41;;;;;;;32.53;13.20;;;;;;;-3.19;100.00;101315.03;5051253;28;20230;-68
2023/12/03 09:15:08;;;;;;;29.37;12.10;;;;;;;-3.29;100.00;101308.16;5072052;28;20205;-70
2023/12/03 09:17:35;;;;;;;27.17;11.73;;;;;;;-3.33;100.00;101303.50;5063352;28;20205;-70
2023/12/03 09:20:01;;;;;;;11.93;4.63;;;;;;;-3.20;100.00;101321.00;5072993;28;20267;-69
2023/12/03 09:22:27;;;;;;;14.83;5.53;;;;;;;-3.18;100.00;101311.66;5072375;28;20958;-68
2023/12/03 09:24:54;;;;;;;10.77;5.20;;;;;;;-3.13;100.00;101314.63;5068464;28;20284;-69
2023/12/03 09:27:20;;;;;;;12.90;5.03;;;;;;;-3.04;100.00;101305.91;5067359;28;20244;-69
2023/12/03 09:29:47;;;;;;;15.03;5.30;;;;;;;-2.93;100.00;101311.97;5071454;28;20200;-69
2023/12/03 09:32:13;;;;;;;13.00;4.53;;;;;;;-2.90;100.00;101312.22;5066019;28;20305;-68
2023/12/03 09:34:40;;;;;;;9.90;3.97;;;;;;;-2.81;100.00;101312.06;5069595;28;20282;-70
2023/12/03 09:37:06;;;;;;;31.77;12.53;;;;;;;-2.75;100.00;101309.97;5056047;28;20201;-69
2023/12/03 09:39:32;;;;;;;9.37;4.70;;;;;;;-2.66;100.00;101303.84;5048943;28;20798;-70
2023/12/03 09:42:02;;;;;;;9.37;4.63;;;;;;;-2.63;100.00;101314.44;5071801;28;20232;-70
2023/12/03 09:44:46;;;;;;;14.53;5.90;;;;;;;-2.57;100.00;101311.44;5054842;28;20327;-69
2023/12/03 09:47:14;;;;;;;10.30;5.27;;;;;;;-2.57;100.00;101314.03;5072180;28;20677;-69
2023/12/03 09:49:47;;;;;;;26.43;11.10;;;;;;;-2.49;100.00;101310.34;5073086;28;20198;-69
2023/12/03 09:52:15;;;;;;;15.23;5.73;;;;;;;-2.48;100.00;101306.06;5048087;28;20654;-69
2023/12/03 09:54:43;;;;;;;27.17;12.07;;;;;;;-2.42;100.00;101306.56;5071187;28;20233;-70
2023/12/03 09:57:10;;;;;;;27.47;11.67;;;;;;;-2.37;100.00;101300.06;5072432;28;20213;-69
2023/12/03 09:59:40;;;;;;;16.17;5.27;;;;;;;-2.32;100.00;101304.84;5073729;28;20222;-67
2023/12/03 10:02:12;;;;;;;13.83;5.13;;;;;;;-2.26;100.00;101296.63;5072274;28;20201;-67
2023/12/03 10:04:38;;;;;;;12.43;5.37;;;;;;;-2.25;100.00;101298.44;5048808;28;20224;-67
2023/12/03 10:07:07;;;;;;;9.20;4.70;;;;;;;-2.22;100.00;101301.28;5069838;28;20214;-67
2023/12/03 10:09:33;;;;;;;13.67;5.33;;;;;;;-2.12;100.00;101308.97;5054650;28;20204;-69
2023/12/03 10:12:04;;;;;;;11.87;4.30;;;;;;;-2.19;100.00;101306.69;5073692;28;20293;-69
2023/12/03 10:14:33;;;;;;;10.50;4.73;;;;;;;-2.23;100.00;101295.19;5056988;28;20225;-69
2023/12/03 10:16:59;;;;;;;15.73;5.67;;;;;;;-2.15;100.00;101300.06;5069285;28;20712;-72
2023/12/03 10:19:27;;;;;;;9.60;5.40;;;;;;;-2.13;100.00;101301.97;5067333;28;20250;-71
2023/12/03 10:21:57;;;;;;;13.90;4.63;;;;;;;-2.06;100.00;101303.38;5069563;28;20242;-71
2023/12/03 10:24:24;;;;;;;15.03;5.23;;;;;;;-2.02;100.00;101285.56;5068395;28;20630;-70
2023/12/03 10:26:52;;;;;;;9.37;4.20;;;;;;;-1.99;100.00;101295.28;5063125;28;20198;-70
2023/12/03 10:29:25;;;;;;;14.17;4.73;;;;;;;-1.85;100.00;101296.34;5042221;28;20195;-70
2023/12/03 10:31:53;;;;;;;10.63;4.20;;;;;;;-1.90;100.00;101286.53;5065063;28;20214;-70
2023/12/03 10:34:21;;;;;;;11.90;4.67;;;;;;;-1.94;100.00;101287.06;5068829;28;20234;-68
2023/12/03 10:36:48;;;;;;;9.80;4.90;;;;;;;-1.98;100.00;101282.44;5066486;28;20204;-67
2023/12/03 10:39:18;;;;;;;20.27;6.40;;;;;;;-1.97;100.00;101279.06;5048359;28;20218;-69
2023/12/03 10:41:51;;;;;;;14.57;5.70;;;;;;;-1.93;100.00;101281.09;5068285;28;20213;-71
2023/12/03 10:44:21;;;;;;;14.83;4.97;;;;;;;-1.81;100.00;101285.41;5067829;28;20340;-71
2023/12/03 10:46:48;;;;;;;9.87;4.07;;;;;;;-1.82;100.00;101279.31;5052041;28;20202;-68
2023/12/03 10:49:14;;;;;;;23.47;10.77;;;;;;;-1.79;100.00;101274.34;5062166;28;20618;-70
2023/12/03 10:51:43;;;;;;;13.47;5.80;;;;;;;-1.55;100.00;101280.53;5046539;28;20209;-69
2023/12/03 10:54:13;;;;;;;16.77;5.20;;;;;;;-1.48;100.00;101266.28;5069688;28;20234;-72
2023/12/03 10:56:40;;;;;;;13.87;4.80;;;;;;;-1.37;100.00;101268.91;5068214;28;20203;-70
2023/12/03 10:59:12;;;;;;;23.67;9.53;;;;;;;-1.30;100.00;101273.75;5067333;28;20237;-70
2023/12/03 11:01:46;;;;;;;20.57;9.80;;;;;;;-1.15;100.00;101261.00;5063139;28;20285;-70
2023/12/03 11:04:37;;;;;;;22.50;10.13;;;;;;;-0.91;100.00;101266.19;5064683;28;20230;-71
2023/12/03 11:07:07;;;;;;;23.50;11.30;;;;;;;-0.79;100.00;101260.19;5064461;28;20231;-70
2023/12/03 11:09:36;;;;;;;26.10;11.33;;;;;;;-0.65;100.00;101262.09;5066104;28;20197;-70